sensor_id;sensor_type;location;lat;lon;timestamp;pressure;altitude;pressure_sealevel;temperature;humidity
58471;BME280;44258;51.288;12.068;2024-02-16T00:02:05;100408.66;;;11.63;72.36
58471;BME280;44258;51.288;12.068;2024-02-16T00:04:31;100413.19;;;11.63;72.60
58471;BME280;44258;51.288;12.068;2024-02-16T00:06:59;100411.84;;;11.70;72.49
58471;BME280;44258;51.288;12.068;2024-02-16T00:09:26;100409.78;;;11.75;72.05
58471;BME280;44258;51.288;12.068;2024-02-16T00:11:53;100406.09;;;11.76;71.79
58471;BME280;44258;51.288;12.068;2024-02-16T00:14:20;100411.56;;;11.74;72.23
58471;BME280;44258;51.288;12.068;2024-02-16T00:16:51;100414.25;;;11.74;72.37
58471;BME280;44258;51.288;12.068;2024-02-16T00:19:20;100417.06;;;11.73;71.92
58471;BME280;44258;51.288;12.068;2024-02-16T00:21:47;100412.47;;;11.75;71.84
58471;BME280;44258;51.288;12.068;2024-02-16T00:24:16;100408.72;;;11.78;71.65
58471;BME280;44258;51.288;12.068;2024-02-16T00:26:43;100411.56;;;11.74;71.64
58471;BME280;44258;51.288;12.068;2024-02-16T00:29:10;100414.00;;;11.79;71.34
58471;BME280;44258;51.288;12.068;2024-02-16T00:31:39;100417.56;;;11.80;71.29
58471;BME280;44258;51.288;12.068;2024-02-16T00:34:07;100421.97;;;11.81;71.04
58471;BME280;44258;51.288;12.068;2024-02-16T00:36:34;100411.97;;;11.83;70.84
58471;BME280;44258;51.288;12.068;2024-02-16T00:39:00;100414.59;;;11.84;70.83
58471;BME280;44258;51.288;12.068;2024-02-16T00:41:27;100421.81;;;11.84;70.78
58471;BME280;44258;51.288;12.068;2024-02-16T00:43:53;100414.94;;;11.78;71.03
58471;BME280;44258;51.288;12.068;2024-02-16T00:46:21;100411.97;;;11.83;70.92
58471;BME280;44258;51.288;12.068;2024-02-16T00:48:51;100412.38;;;11.91;70.62
58471;BME280;44258;51.288;12.068;2024-02-16T00:51:21;100420.13;;;11.97;70.15
58471;BME280;44258;51.288;12.068;2024-02-16T00:53:52;100417.31;;;11.99;70.27
58471;BME280;44258;51.288;12.068;2024-02-16T00:56:19;100421.69;;;12.01;70.05
58471;BME280;44258;51.288;12.068;2024-02-16T00:58:46;100416.66;;;11.95;70.34
58471;BME280;44258;51.288;12.068;2024-02-16T01:01:13;100406.03;;;11.92;70.32
58471;BME280;44258;51.288;12.068;2024-02-16T01:03:39;100412.81;;;11.99;70.13
58471;BME280;44258;51.288;12.068;2024-02-16T01:06:06;100403.97;;;11.97;70.06
58471;BME280;44258;51.288;12.068;2024-02-16T01:08:35;100401.19;;;11.83;70.52
58471;BME280;44258;51.288;12.068;2024-02-16T01:11:02;100413.91;;;11.81;70.64
58471;BME280;44258;51.288;12.068;2024-02-16T01:13:29;100401.69;;;11.75;70.84
58471;BME280;44258;51.288;12.068;2024-02-16T01:15:57;100405.59;;;11.69;70.90
58471;BME280;44258;51.288;12.068;2024-02-16T01:18:24;100396.06;;;11.64;70.92
58471;BME280;44258;51.288;12.068;2024-02-16T01:20:52;100394.34;;;11.63;70.88
58471;BME280;44258;51.288;12.068;2024-02-16T01:23:19;100398.06;;;11.60;70.87
58471;BME280;44258;51.288;12.068;2024-02-16T01:25:47;100384.09;;;11.53;71.09
58471;BME280;44258;51.288;12.068;2024-02-16T01:28:14;100394.72;;;11.57;71.17
58471;BME280;44258;51.288;12.068;2024-02-16T01:30:42;100392.09;;;11.55;70.90
58471;BME280;44258;51.288;12.068;2024-02-16T01:33:09;100377.06;;;11.51;71.10
58471;BME280;44258;51.288;12.068;2024-02-16T01:35:38;100380.84;;;11.48;70.96
58471;BME280;44258;51.288;12.068;2024-02-16T01:38:05;100390.72;;;11.48;71.02
58471;BME280;44258;51.288;12.068;2024-02-16T01:40:32;100388.00;;;11.48;71.18
58471;BME280;44258;51.288;12.068;2024-02-16T01:43:01;100376.66;;;11.43;71.17
58471;BME280;44258;51.288;12.068;2024-02-16T01:45:27;100375.03;;;11.40;71.26
58471;BME280;44258;51.288;12.068;2024-02-16T01:47:54;100374.66;;;11.46;71.13
58471;BME280;44258;51.288;12.068;2024-02-16T01:50:22;100373.97;;;11.43;71.30
58471;BME280;44258;51.288;12.068;2024-02-16T01:52:50;100366.75;;;11.43;71.27
58471;BME280;44258;51.288;12.068;2024-02-16T01:55:19;100362.44;;;11.41;71.73
58471;BME280;44258;51.288;12.068;2024-02-16T01:57:49;100358.69;;;11.43;72.02
58471;BME280;44258;51.288;12.068;2024-02-16T02:00:17;100353.97;;;11.47;72.16
58471;BME280;44258;51.288;12.068;2024-02-16T02:02:45;100363.41;;;11.54;72.19
58471;BME280;44258;51.288;12.068;2024-02-16T02:05:15;100361.41;;;11.58;72.33
58471;BME280;44258;51.288;12.068;2024-02-16T02:07:41;100350.28;;;11.64;72.40
58471;BME280;44258;51.288;12.068;2024-02-16T02:10:08;100353.56;;;11.69;72.28
58471;BME280;44258;51.288;12.068;2024-02-16T02:12:38;100355.78;;;11.77;71.86
58471;BME280;44258;51.288;12.068;2024-02-16T02:15:06;100349.44;;;11.78;71.97
58471;BME280;44258;51.288;12.068;2024-02-16T02:17:35;100360.63;;;11.86;71.68
58471;BME280;44258;51.288;12.068;2024-02-16T02:20:02;100360.31;;;11.90;71.47
58471;BME280;44258;51.288;12.068;2024-02-16T02:22:34;100369.88;;;11.96;71.19
58471;BME280;44258;51.288;12.068;2024-02-16T02:25:03;100351.59;;;12.01;70.83
58471;BME280;44258;51.288;12.068;2024-02-16T02:27:30;100350.72;;;12.01;70.70
58471;BME280;44258;51.288;12.068;2024-02-16T02:29:57;100344.16;;;11.90;71.04
58471;BME280;44258;51.288;12.068;2024-02-16T02:32:23;100346.06;;;11.88;71.23
58471;BME280;44258;51.288;12.068;2024-02-16T02:34:50;100348.22;;;11.98;70.85
58471;BME280;44258;51.288;12.068;2024-02-16T02:37:21;100346.47;;;11.97;70.93
58471;BME280;44258;51.288;12.068;2024-02-16T02:39:49;100346.69;;;11.93;71.13
58471;BME280;44258;51.288;12.068;2024-02-16T02:42:16;100329.22;;;11.85;71.36
58471;BME280;44258;51.288;12.068;2024-02-16T02:44:42;100350.59;;;11.88;71.73
58471;BME280;44258;51.288;12.068;2024-02-16T02:47:15;100348.69;;;11.90;71.63
58471;BME280;44258;51.288;12.068;2024-02-16T02:49:42;100344.66;;;11.97;71.32
58471;BME280;44258;51.288;12.068;2024-02-16T02:52:08;100341.09;;;11.97;71.31
58471;BME280;44258;51.288;12.068;2024-02-16T02:54:35;100340.31;;;11.94;71.69
58471;BME280;44258;51.288;12.068;2024-02-16T02:57:07;100334.66;;;11.99;71.70
58471;BME280;44258;51.288;12.068;2024-02-16T02:59:33;100338.72;;;12.06;71.34
58471;BME280;44258;51.288;12.068;2024-02-16T03:02:03;100332.38;;;12.07;71.26
58471;BME280;44258;51.288;12.068;2024-02-16T03:04:30;100329.84;;;12.04;71.43
58471;BME280;44258;51.288;12.068;2024-02-16T03:06:58;100330.03;;;12.01;71.37
58471;BME280;44258;51.288;12.068;2024-02-16T03:09:25;100339.06;;;12.00;71.45
58471;BME280;44258;51.288;12.068;2024-02-16T03:11:51;100323.50;;;12.05;71.42
58471;BME280;44258;51.288;12.068;2024-02-16T03:14:22;100332.72;;;12.01;71.30
58471;BME280;44258;51.288;12.068;2024-02-16T03:16:51;100336.03;;;12.06;71.31
58471;BME280;44258;51.288;12.068;2024-02-16T03:19:23;100329.78;;;12.06;70.83
58471;BME280;44258;51.288;12.068;2024-02-16T03:21:50;100327.66;;;12.11;70.71
58471;BME280;44258;51.288;12.068;2024-02-16T03:24:16;100333.63;;;12.16;70.25
58471;BME280;44258;51.288;12.068;2024-02-16T03:26:43;100332.56;;;12.19;70.20
58471;BME280;44258;51.288;12.068;2024-02-16T03:29:09;100328.91;;;12.20;70.13
58471;BME280;44258;51.288;12.068;2024-02-16T03:31:37;100329.00;;;12.18;69.88
58471;BME280;44258;51.288;12.068;2024-02-16T03:34:04;100322.00;;;12.16;70.14
58471;BME280;44258;51.288;12.068;2024-02-16T03:36:32;100324.00;;;12.12;70.21
58471;BME280;44258;51.288;12.068;2024-02-16T03:38:59;100323.31;;;12.08;70.30
58471;BME280;44258;51.288;12.068;2024-02-16T03:41:26;100309.44;;;12.00;70.74
58471;BME280;44258;51.288;12.068;2024-02-16T03:43:54;100321.06;;;12.01;70.71
58471;BME280;44258;51.288;12.068;2024-02-16T03:46:23;100322.81;;;12.02;71.08
58471;BME280;44258;51.288;12.068;2024-02-16T03:48:51;100313.19;;;11.98;71.21
58471;BME280;44258;51.288;12.068;2024-02-16T03:51:21;100319.91;;;12.05;71.10
58471;BME280;44258;51.288;12.068;2024-02-16T03:53:48;100317.06;;;12.08;71.20
58471;BME280;44258;51.288;12.068;2024-02-16T03:56:18;100317.06;;;12.08;70.81
58471;BME280;44258;51.288;12.068;2024-02-16T03:58:46;100315.22;;;12.08;71.27
58471;BME280;44258;51.288;12.068;2024-02-16T04:01:13;100312.72;;;12.05;71.33
58471;BME280;44258;51.288;12.068;2024-02-16T04:03:39;100315.97;;;11.96;72.08
58471;BME280;44258;51.288;12.068;2024-02-16T04:06:09;100324.91;;;11.97;71.75
58471;BME280;44258;51.288;12.068;2024-02-16T04:08:36;100318.59;;;11.98;71.97
58471;BME280;44258;51.288;12.068;2024-02-16T04:11:03;100319.44;;;11.98;72.15
58471;BME280;44258;51.288;12.068;2024-02-16T04:13:33;100315.88;;;11.98;71.81
58471;BME280;44258;51.288;12.068;2024-02-16T04:15:59;100320.81;;;12.05;71.84
58471;BME280;44258;51.288;12.068;2024-02-16T04:18:26;100313.97;;;12.00;72.00
58471;BME280;44258;51.288;12.068;2024-02-16T04:20:55;100318.38;;;12.01;71.98
58471;BME280;44258;51.288;12.068;2024-02-16T04:23:23;100310.03;;;12.05;71.77
58471;BME280;44258;51.288;12.068;2024-02-16T04:25:52;100326.31;;;12.18;71.49
58471;BME280;44258;51.288;12.068;2024-02-16T04:28:18;100317.63;;;12.27;71.23
58471;BME280;44258;51.288;12.068;2024-02-16T04:30:45;100310.88;;;12.34;70.95
58471;BME280;44258;51.288;12.068;2024-02-16T04:33:11;100317.91;;;12.37;70.47
58471;BME280;44258;51.288;12.068;2024-02-16T04:35:38;100321.84;;;12.31;70.72
58471;BME280;44258;51.288;12.068;2024-02-16T04:38:05;100324.94;;;12.25;71.09
58471;BME280;44258;51.288;12.068;2024-02-16T04:40:36;100335.63;;;12.27;70.83
58471;BME280;44258;51.288;12.068;2024-02-16T04:43:03;100332.47;;;12.34;70.72
58471;BME280;44258;51.288;12.068;2024-02-16T04:45:30;100321.09;;;12.29;70.57
58471;BME280;44258;51.288;12.068;2024-02-16T04:47:56;100313.00;;;12.29;70.83
58471;BME280;44258;51.288;12.068;2024-02-16T04:50:24;100318.50;;;12.42;70.35
58471;BME280;44258;51.288;12.068;2024-02-16T04:52:50;100315.59;;;12.45;70.05
58471;BME280;44258;51.288;12.068;2024-02-16T04:55:17;100300.38;;;12.44;70.07
58471;BME280;44258;51.288;12.068;2024-02-16T04:57:49;100297.69;;;12.44;69.80
58471;BME280;44258;51.288;12.068;2024-02-16T05:00:19;100310.19;;;12.45;70.10
58471;BME280;44258;51.288;12.068;2024-02-16T05:02:46;100310.28;;;12.44;69.95
58471;BME280;44258;51.288;12.068;2024-02-16T05:05:15;100317.59;;;12.42;70.19
58471;BME280;44258;51.288;12.068;2024-02-16T05:07:43;100314.06;;;12.27;70.65
58471;BME280;44258;51.288;12.068;2024-02-16T05:10:12;100316.47;;;12.31;70.90
58471;BME280;44258;51.288;12.068;2024-02-16T05:12:38;100307.97;;;12.38;70.21
58471;BME280;44258;51.288;12.068;2024-02-16T05:15:11;100296.44;;;12.35;70.22
58471;BME280;44258;51.288;12.068;2024-02-16T05:17:39;100297.41;;;12.34;70.33
58471;BME280;44258;51.288;12.068;2024-02-16T05:20:09;100295.19;;;12.27;70.22
58471;BME280;44258;51.288;12.068;2024-02-16T05:22:41;100289.53;;;12.17;70.83
58471;BME280;44258;51.288;12.068;2024-02-16T05:25:08;100286.72;;;12.19;70.75
58471;BME280;44258;51.288;12.068;2024-02-16T05:27:36;100285.03;;;12.18;70.96
58471;BME280;44258;51.288;12.068;2024-02-16T05:30:08;100285.28;;;12.13;71.20
58471;BME280;44258;51.288;12.068;2024-02-16T05:32:37;100293.50;;;12.11;70.89
58471;BME280;44258;51.288;12.068;2024-02-16T05:35:13;100280.03;;;12.11;70.98
58471;BME280;44258;51.288;12.068;2024-02-16T05:37:44;100286.66;;;12.06;71.09
58471;BME280;44258;51.288;12.068;2024-02-16T05:40:14;100283.75;;;12.09;70.97
58471;BME280;44258;51.288;12.068;2024-02-16T05:42:51;100284.22;;;12.01;71.34
58471;BME280;44258;51.288;12.068;2024-02-16T05:45:18;100294.75;;;12.06;71.40
58471;BME280;44258;51.288;12.068;2024-02-16T05:47:46;100292.09;;;12.04;71.40
58471;BME280;44258;51.288;12.068;2024-02-16T05:50:15;100294.53;;;12.09;71.34
58471;BME280;44258;51.288;12.068;2024-02-16T05:52:46;100286.19;;;12.13;71.03
58471;BME280;44258;51.288;12.068;2024-02-16T05:55:12;100290.09;;;12.22;70.56
58471;BME280;44258;51.288;12.068;2024-02-16T05:57:39;100289.81;;;12.12;70.96
58471;BME280;44258;51.288;12.068;2024-02-16T06:00:08;100284.91;;;12.19;70.75
58471;BME280;44258;51.288;12.068;2024-02-16T06:02:41;100288.66;;;12.17;70.77
58471;BME280;44258;51.288;12.068;2024-02-16T06:05:18;100270.56;;;12.19;70.68
58471;BME280;44258;51.288;12.068;2024-02-16T06:07:45;100270.25;;;12.23;70.64
58471;BME280;44258;51.288;12.068;2024-02-16T06:10:12;100276.22;;;12.28;70.46
58471;BME280;44258;51.288;12.068;2024-02-16T06:12:39;100274.41;;;12.29;70.39
58471;BME280;44258;51.288;12.068;2024-02-16T06:15:06;100277.50;;;12.23;70.88
58471;BME280;44258;51.288;12.068;2024-02-16T06:17:39;100278.75;;;12.17;70.56
58471;BME280;44258;51.288;12.068;2024-02-16T06:20:07;100285.88;;;12.18;71.03
58471;BME280;44258;51.288;12.068;2024-02-16T06:22:37;100282.97;;;12.21;70.73
58471;BME280;44258;51.288;12.068;2024-02-16T06:25:04;100291.19;;;12.20;70.89
58471;BME280;44258;51.288;12.068;2024-02-16T06:27:30;100291.25;;;12.18;71.01
58471;BME280;44258;51.288;12.068;2024-02-16T06:29:57;100286.66;;;12.20;70.83
58471;BME280;44258;51.288;12.068;2024-02-16T06:32:26;100276.25;;;12.14;70.96
58471;BME280;44258;51.288;12.068;2024-02-16T06:34:53;100271.81;;;12.13;70.97
58471;BME280;44258;51.288;12.068;2024-02-16T06:37:21;100276.25;;;12.14;71.07
58471;BME280;44258;51.288;12.068;2024-02-16T06:39:49;100279.72;;;12.16;70.88
58471;BME280;44258;51.288;12.068;2024-02-16T06:42:15;100280.50;;;12.18;70.75
58471;BME280;44258;51.288;12.068;2024-02-16T06:44:42;100270.16;;;12.25;70.38
58471;BME280;44258;51.288;12.068;2024-02-16T06:47:15;100278.16;;;12.26;70.03
58471;BME280;44258;51.288;12.068;2024-02-16T06:49:42;100274.31;;;12.30;69.85
58471;BME280;44258;51.288;12.068;2024-02-16T06:52:09;100273.72;;;12.25;70.13
58471;BME280;44258;51.288;12.068;2024-02-16T06:54:36;100280.47;;;12.32;70.02
58471;BME280;44258;51.288;12.068;2024-02-16T06:57:05;100278.03;;;12.42;69.65
58471;BME280;44258;51.288;12.068;2024-02-16T06:59:32;100280.13;;;12.51;69.15
58471;BME280;44258;51.288;12.068;2024-02-16T07:01:59;100279.63;;;12.59;68.99
58471;BME280;44258;51.288;12.068;2024-02-16T07:04:26;100284.94;;;12.61;68.79
58471;BME280;44258;51.288;12.068;2024-02-16T07:06:53;100284.06;;;12.60;68.65
58471;BME280;44258;51.288;12.068;2024-02-16T07:09:20;100277.78;;;12.60;68.73
58471;BME280;44258;51.288;12.068;2024-02-16T07:11:47;100270.47;;;12.62;68.84
58471;BME280;44258;51.288;12.068;2024-02-16T07:14:16;100267.78;;;12.62;68.60
58471;BME280;44258;51.288;12.068;2024-02-16T07:16:43;100277.13;;;12.70;68.44
58471;BME280;44258;51.288;12.068;2024-02-16T07:19:10;100271.91;;;12.67;68.44
58471;BME280;44258;51.288;12.068;2024-02-16T07:21:41;100280.44;;;12.74;68.09
58471;BME280;44258;51.288;12.068;2024-02-16T07:24:12;100279.34;;;12.91;67.95
58471;BME280;44258;51.288;12.068;2024-02-16T07:26:43;100282.69;;;12.94;67.89
58471;BME280;44258;51.288;12.068;2024-02-16T07:29:14;100280.34;;;13.03;67.45
58471;BME280;44258;51.288;12.068;2024-02-16T07:31:43;100273.97;;;13.04;66.64
58471;BME280;44258;51.288;12.068;2024-02-16T07:34:10;100277.94;;;12.98;67.10
58471;BME280;44258;51.288;12.068;2024-02-16T07:36:39;100264.59;;;13.09;66.51
58471;BME280;44258;51.288;12.068;2024-02-16T07:39:05;100285.75;;;13.30;66.27
58471;BME280;44258;51.288;12.068;2024-02-16T07:41:37;100284.25;;;13.39;65.59
58471;BME280;44258;51.288;12.068;2024-02-16T07:44:05;100283.72;;;13.46;65.65
58471;BME280;44258;51.288;12.068;2024-02-16T07:46:32;100283.06;;;13.43;65.37
58471;BME280;44258;51.288;12.068;2024-02-16T07:49:01;100275.09;;;13.67;65.05
58471;BME280;44258;51.288;12.068;2024-02-16T07:51:29;100272.03;;;13.84;64.27
58471;BME280;44258;51.288;12.068;2024-02-16T07:53:56;100274.88;;;13.57;64.48
58471;BME280;44258;51.288;12.068;2024-02-16T07:56:22;100281.91;;;13.85;64.31
58471;BME280;44258;51.288;12.068;2024-02-16T07:58:49;100277.59;;;13.83;63.85
58471;BME280;44258;51.288;12.068;2024-02-16T08:01:16;100284.94;;;13.93;64.23
58471;BME280;44258;51.288;12.068;2024-02-16T08:03:42;100273.75;;;14.24;63.13
58471;BME280;44258;51.288;12.068;2024-02-16T08:06:14;100279.34;;;14.46;62.70
58471;BME280;44258;51.288;12.068;2024-02-16T08:08:41;100279.38;;;14.70;61.89
58471;BME280;44258;51.288;12.068;2024-02-16T08:11:08;100286.47;;;14.84;61.63
58471;BME280;44258;51.288;12.068;2024-02-16T08:13:35;100294.72;;;14.83;61.65
58471;BME280;44258;51.288;12.068;2024-02-16T08:16:02;100293.72;;;14.84;61.49
58471;BME280;44258;51.288;12.068;2024-02-16T08:18:32;100298.28;;;14.83;61.32
58471;BME280;44258;51.288;12.068;2024-02-16T08:20:59;100286.31;;;14.74;61.17
58471;BME280;44258;51.288;12.068;2024-02-16T08:23:29;100282.59;;;14.75;60.63
58471;BME280;44258;51.288;12.068;2024-02-16T08:25:56;100286.19;;;14.76;61.28
58471;BME280;44258;51.288;12.068;2024-02-16T08:28:24;100283.94;;;14.70;61.46
58471;BME280;44258;51.288;12.068;2024-02-16T08:30:53;100282.03;;;14.83;61.19
58471;BME280;44258;51.288;12.068;2024-02-16T08:33:20;100271.84;;;14.87;61.07
58471;BME280;44258;51.288;12.068;2024-02-16T08:35:47;100272.53;;;14.78;61.00
58471;BME280;44258;51.288;12.068;2024-02-16T08:38:18;100277.53;;;14.71;61.00
58471;BME280;44258;51.288;12.068;2024-02-16T08:40:47;100265.09;;;14.68;60.59
58471;BME280;44258;51.288;12.068;2024-02-16T08:43:18;100272.28;;;14.57;61.77
58471;BME280;44258;51.288;12.068;2024-02-16T08:45:45;100278.84;;;14.65;61.67
58471;BME280;44258;51.288;12.068;2024-02-16T08:48:12;100277.38;;;14.85;61.36
58471;BME280;44258;51.288;12.068;2024-02-16T08:50:39;100279.03;;;14.99;61.12
58471;BME280;44258;51.288;12.068;2024-02-16T08:53:07;100278.84;;;15.13;60.85
58471;BME280;44258;51.288;12.068;2024-02-16T08:55:35;100274.06;;;15.17;60.49
58471;BME280;44258;51.288;12.068;2024-02-16T08:58:03;100271.16;;;15.31;60.24
58471;BME280;44258;51.288;12.068;2024-02-16T09:00:30;100270.31;;;15.31;60.31
58471;BME280;44258;51.288;12.068;2024-02-16T09:02:57;100270.16;;;15.32;60.10
58471;BME280;44258;51.288;12.068;2024-02-16T09:05:24;100266.06;;;15.40;60.28
58471;BME280;44258;51.288;12.068;2024-02-16T09:07:51;100262.97;;;15.33;60.60
58471;BME280;44258;51.288;12.068;2024-02-16T09:10:18;100261.44;;;15.29;60.42
58471;BME280;44258;51.288;12.068;2024-02-16T09:12:44;100251.47;;;15.29;61.01
58471;BME280;44258;51.288;12.068;2024-02-16T09:15:13;100247.47;;;15.35;60.87
58471;BME280;44258;51.288;12.068;2024-02-16T09:17:44;100251.91;;;15.47;60.94
58471;BME280;44258;51.288;12.068;2024-02-16T09:20:11;100240.44;;;15.55;60.18
58471;BME280;44258;51.288;12.068;2024-02-16T09:22:40;100244.53;;;15.49;61.26
58471;BME280;44258;51.288;12.068;2024-02-16T09:25:07;100247.09;;;15.51;61.33
58471;BME280;44258;51.288;12.068;2024-02-16T09:27:34;100253.41;;;15.51;61.09
58471;BME280;44258;51.288;12.068;2024-02-16T09:30:07;100258.84;;;15.74;60.88
58471;BME280;44258;51.288;12.068;2024-02-16T09:32:42;100256.13;;;15.85;60.51
58471;BME280;44258;51.288;12.068;2024-02-16T09:35:09;100265.88;;;15.99;59.82
58471;BME280;44258;51.288;12.068;2024-02-16T09:37:42;100250.38;;;16.12;59.63
58471;BME280;44258;51.288;12.068;2024-02-16T09:40:12;100258.75;;;16.21;58.69
58471;BME280;44258;51.288;12.068;2024-02-16T09:42:39;100255.38;;;16.28;58.16
58471;BME280;44258;51.288;12.068;2024-02-16T09:45:11;100251.09;;;16.26;58.18
58471;BME280;44258;51.288;12.068;2024-02-16T09:47:47;100236.78;;;16.24;58.51
58471;BME280;44258;51.288;12.068;2024-02-16T09:50:20;100248.03;;;16.30;58.71
58471;BME280;44258;51.288;12.068;2024-02-16T09:52:51;100246.16;;;16.42;59.31
58471;BME280;44258;51.288;12.068;2024-02-16T09:55:18;100259.50;;;16.45;59.12
58471;BME280;44258;51.288;12.068;2024-02-16T09:57:45;100249.00;;;16.41;58.84
58471;BME280;44258;51.288;12.068;2024-02-16T10:00:13;100272.69;;;16.39;59.29
58471;BME280;44258;51.288;12.068;2024-02-16T10:02:40;100285.00;;;16.20;59.76
58471;BME280;44258;51.288;12.068;2024-02-16T10:05:16;100285.88;;;16.21;59.26
58471;BME280;44258;51.288;12.068;2024-02-16T10:07:43;100292.91;;;16.46;58.16
58471;BME280;44258;51.288;12.068;2024-02-16T10:10:20;100302.41;;;16.40;58.45
58471;BME280;44258;51.288;12.068;2024-02-16T10:12:50;100304.97;;;16.64;58.43
58471;BME280;44258;51.288;12.068;2024-02-16T10:15:23;100314.59;;;16.80;57.65
58471;BME280;44258;51.288;12.068;2024-02-16T10:17:59;100309.38;;;16.88;57.48
58471;BME280;44258;51.288;12.068;2024-02-16T10:20:27;100315.00;;;17.07;57.04
58471;BME280;44258;51.288;12.068;2024-02-16T10:23:04;100315.09;;;17.06;56.46
58471;BME280;44258;51.288;12.068;2024-02-16T10:25:31;100308.53;;;17.20;56.68
58471;BME280;44258;51.288;12.068;2024-02-16T10:28:05;100313.47;;;17.26;56.90
58471;BME280;44258;51.288;12.068;2024-02-16T10:30:35;100329.63;;;17.39;57.36
58471;BME280;44258;51.288;12.068;2024-02-16T10:33:03;100320.06;;;17.44;56.76
58471;BME280;44258;51.288;12.068;2024-02-16T10:35:32;100322.94;;;17.43;56.24
58471;BME280;44258;51.288;12.068;2024-02-16T10:38:01;100316.06;;;17.27;56.65
58471;BME280;44258;51.288;12.068;2024-02-16T10:40:31;100312.50;;;17.15;56.71
58471;BME280;44258;51.288;12.068;2024-02-16T10:43:01;100328.56;;;17.07;56.75
58471;BME280;44258;51.288;12.068;2024-02-16T10:45:33;100326.72;;;17.08;57.25
58471;BME280;44258;51.288;12.068;2024-02-16T10:48:00;100334.00;;;17.07;58.06
58471;BME280;44258;51.288;12.068;2024-02-16T10:50:27;100333.63;;;17.23;57.32
58471;BME280;44258;51.288;12.068;2024-02-16T10:53:02;100336.69;;;17.30;58.00
58471;BME280;44258;51.288;12.068;2024-02-16T10:55:30;100332.91;;;17.42;57.61
58471;BME280;44258;51.288;12.068;2024-02-16T10:57:57;100335.59;;;17.53;57.13
58471;BME280;44258;51.288;12.068;2024-02-16T11:00:29;100323.34;;;17.59;57.42
58471;BME280;44258;51.288;12.068;2024-02-16T11:03:03;100330.47;;;17.60;56.73
58471;BME280;44258;51.288;12.068;2024-02-16T11:05:34;100327.16;;;17.57;56.75
58471;BME280;44258;51.288;12.068;2024-02-16T11:08:03;100319.28;;;17.53;56.77
58471;BME280;44258;51.288;12.068;2024-02-16T11:10:32;100316.75;;;17.41;56.46
58471;BME280;44258;51.288;12.068;2024-02-16T11:13:03;100317.13;;;17.36;56.66
58471;BME280;44258;51.288;12.068;2024-02-16T11:15:31;100317.50;;;17.43;56.61
58471;BME280;44258;51.288;12.068;2024-02-16T11:18:03;100305.06;;;17.29;56.59
58471;BME280;44258;51.288;12.068;2024-02-16T11:20:38;100290.97;;;17.35;56.41
58471;BME280;44258;51.288;12.068;2024-02-16T11:23:08;100295.13;;;17.39;56.65
58471;BME280;44258;51.288;12.068;2024-02-16T11:25:37;100289.38;;;17.53;57.06
58471;BME280;44258;51.288;12.068;2024-02-16T11:28:07;100287.31;;;17.67;56.12
58471;BME280;44258;51.288;12.068;2024-02-16T11:30:34;100288.38;;;17.54;56.87
58471;BME280;44258;51.288;12.068;2024-02-16T11:33:02;100285.06;;;17.51;57.20
58471;BME280;44258;51.288;12.068;2024-02-16T11:35:31;100286.53;;;17.55;56.87
58471;BME280;44258;51.288;12.068;2024-02-16T11:37:57;100292.53;;;17.59;57.06
58471;BME280;44258;51.288;12.068;2024-02-16T11:40:25;100287.91;;;17.70;56.06
58471;BME280;44258;51.288;12.068;2024-02-16T11:42:58;100288.22;;;17.77;56.47
58471;BME280;44258;51.288;12.068;2024-02-16T11:45:24;100283.56;;;17.89;55.44
58471;BME280;44258;51.288;12.068;2024-02-16T11:47:51;100293.47;;;17.90;55.54
58471;BME280;44258;51.288;12.068;2024-02-16T11:50:18;100295.59;;;17.86;56.41
58471;BME280;44258;51.288;12.068;2024-02-16T11:52:46;100293.06;;;17.94;55.75
58471;BME280;44258;51.288;12.068;2024-02-16T11:55:13;100292.53;;;18.01;55.67
58471;BME280;44258;51.288;12.068;2024-02-16T11:57:42;100296.19;;;18.11;55.35
58471;BME280;44258;51.288;12.068;2024-02-16T12:00:10;100289.22;;;18.18;54.32
58471;BME280;44258;51.288;12.068;2024-02-16T12:02:40;100285.91;;;18.14;53.59
58471;BME280;44258;51.288;12.068;2024-02-16T12:05:07;100285.59;;;18.18;54.44
58471;BME280;44258;51.288;12.068;2024-02-16T12:07:37;100292.25;;;18.25;53.70
58471;BME280;44258;51.288;12.068;2024-02-16T12:10:06;100287.47;;;18.17;53.77
58471;BME280;44258;51.288;12.068;2024-02-16T12:12:34;100286.38;;;18.29;54.02
58471;BME280;44258;51.288;12.068;2024-02-16T12:15:06;100290.13;;;18.38;53.68
58471;BME280;44258;51.288;12.068;2024-02-16T12:17:34;100281.22;;;18.26;53.51
58471;BME280;44258;51.288;12.068;2024-02-16T12:20:11;100278.66;;;18.34;53.17
58471;BME280;44258;51.288;12.068;2024-02-16T12:22:39;100277.69;;;18.45;53.03
58471;BME280;44258;51.288;12.068;2024-02-16T12:25:09;100280.13;;;18.39;53.87
58471;BME280;44258;51.288;12.068;2024-02-16T12:27:36;100274.13;;;18.45;53.58
58471;BME280;44258;51.288;12.068;2024-02-16T12:30:07;100271.78;;;18.40;53.44
58471;BME280;44258;51.288;12.068;2024-02-16T12:32:34;100274.88;;;18.57;53.50
58471;BME280;44258;51.288;12.068;2024-02-16T12:35:00;100275.31;;;18.62;53.17
58471;BME280;44258;51.288;12.068;2024-02-16T12:37:28;100275.53;;;18.39;53.00
58471;BME280;44258;51.288;12.068;2024-02-16T12:39:54;100275.28;;;18.52;52.56
58471;BME280;44258;51.288;12.068;2024-02-16T12:42:21;100270.41;;;18.56;52.73
58471;BME280;44258;51.288;12.068;2024-02-16T12:44:47;100275.28;;;18.52;52.69
58471;BME280;44258;51.288;12.068;2024-02-16T12:47:15;100268.84;;;18.53;52.78